createdAt,value
2023-02-18T00:03:27.257Z,101106.69
2023-02-18T00:08:28.500Z,101110.84
2023-02-18T00:13:29.664Z,101102.72
2023-02-18T00:18:30.803Z,101102.22
2023-02-18T00:23:32.038Z,101101.72
2023-02-18T00:28:33.252Z,101095.41
2023-02-18T00:33:34.394Z,101096.47
2023-02-18T00:38:35.619Z,101087.00
2023-02-18T00:43:36.821Z,101068.13
2023-02-18T00:48:38.056Z,101066.00
2023-02-18T00:53:39.249Z,101067.56
2023-02-18T00:58:40.420Z,101063.09
2023-02-18T01:03:41.660Z,101062.84
2023-02-18T01:08:42.857Z,101054.94
2023-02-18T01:13:44.066Z,101036.81
2023-02-18T01:18:45.256Z,101042.84
2023-02-18T01:23:46.514Z,101051.28
2023-02-18T01:28:48.182Z,101038.13
2023-02-18T01:33:49.386Z,101032.88
2023-02-18T01:38:50.571Z,101025.78
2023-02-18T01:43:51.744Z,101024.44
2023-02-18T01:48:53.081Z,101024.97
2023-02-18T01:53:54.324Z,101024.16
2023-02-18T01:58:55.554Z,101017.06
2023-02-18T02:03:56.741Z,101015.00
2023-02-18T02:08:58.248Z,101010.00
2023-02-18T02:13:59.426Z,100995.28
2023-02-18T02:19:00.631Z,100986.13
2023-02-18T02:24:01.770Z,100992.41
2023-02-18T02:29:04.610Z,100986.38
2023-02-18T02:34:05.846Z,100984.53
2023-02-18T02:39:07.021Z,100973.50
2023-02-18T02:44:08.157Z,100969.06
2023-02-18T02:49:09.318Z,100959.41
2023-02-18T02:54:10.663Z,100953.34
2023-02-18T02:59:11.856Z,100951.78
2023-02-18T03:04:13.464Z,100950.97
2023-02-18T03:09:15.152Z,100930.78
2023-02-18T03:14:16.328Z,100931.53
2023-02-18T03:19:17.475Z,100932.31
2023-02-18T03:24:18.629Z,100933.13
2023-02-18T03:29:19.791Z,100921.03
2023-02-18T03:34:21.030Z,100910.53
2023-02-18T03:39:22.220Z,100911.34
2023-02-18T03:44:23.434Z,100909.53
2023-02-18T03:49:24.588Z,100919.56
2023-02-18T03:54:25.733Z,100911.97
2023-02-18T03:59:26.965Z,100915.44
2023-02-18T04:04:28.115Z,100892.38
2023-02-18T04:09:29.341Z,100890.81
2023-02-18T04:14:30.545Z,100880.06
2023-02-18T04:19:31.682Z,100869.31
2023-02-18T04:24:32.904Z,100869.84
2023-02-18T04:29:34.124Z,100859.13
2023-02-18T04:34:35.373Z,100857.53
2023-02-18T04:39:36.546Z,100859.91
2023-02-18T04:44:37.760Z,100850.47
2023-02-18T04:49:38.938Z,100857.81
2023-02-18T04:54:40.152Z,100842.91
2023-02-18T04:59:41.305Z,100842.34
2023-02-18T05:04:42.499Z,100849.72
2023-02-18T05:09:43.709Z,100839.00
2023-02-18T05:14:44.956Z,100843.72
2023-02-18T05:19:46.240Z,100829.28
2023-02-18T05:24:47.394Z,100828.53
2023-02-18T05:29:48.569Z,100823.53
2023-02-18T05:34:49.819Z,100818.56
2023-02-18T05:39:50.994Z,100817.00
2023-02-18T05:44:52.181Z,100812.81
2023-02-18T05:49:53.383Z,100801.53
2023-02-18T05:54:54.578Z,100791.31
2023-02-18T05:59:55.901Z,100780.31
2023-02-18T06:04:57.057Z,100774.25
2023-02-18T06:09:58.246Z,100773.47
2023-02-18T06:14:59.502Z,100770.34
2023-02-18T06:20:00.712Z,100770.34
2023-02-18T06:25:01.928Z,100767.19
2023-02-18T06:30:03.116Z,100771.66
2023-02-18T06:35:04.315Z,100764.88
2023-02-18T06:40:05.489Z,100764.06
2023-02-18T06:45:06.799Z,100770.38
2023-02-18T06:50:07.993Z,100766.19
2023-02-18T06:55:12.314Z,100762.50
2023-02-18T07:00:13.484Z,100750.94
2023-02-18T07:05:14.654Z,100752.53
2023-02-18T07:10:15.874Z,100758.78
2023-02-18T07:15:17.065Z,100768.72
2023-02-18T07:20:18.306Z,100768.16
2023-02-18T07:25:20.554Z,100775.00
2023-02-18T07:30:23.287Z,100773.63
2023-02-18T07:35:24.476Z,100777.53
2023-02-18T07:40:25.833Z,100784.84
2023-02-18T07:45:27.123Z,100778.47
2023-02-18T07:50:28.432Z,100782.91
2023-02-18T07:55:49.055Z,100785.03
2023-02-18T08:00:50.359Z,100792.13
2023-02-18T08:05:51.566Z,100803.69
2023-02-18T08:10:52.749Z,100815.47
2023-02-18T08:15:53.913Z,100832.03
2023-02-18T08:20:55.646Z,100828.63
2023-02-18T08:25:56.790Z,100827.34
2023-02-18T08:30:57.972Z,100845.50
2023-02-18T08:35:59.175Z,100841.06
2023-02-18T08:41:00.387Z,100847.94
2023-02-18T08:46:01.622Z,100866.56
2023-02-18T08:51:02.881Z,100854.25
2023-02-18T08:56:04.068Z,100866.88
2023-02-18T09:01:05.334Z,100859.84
2023-02-18T09:06:06.593Z,100862.97
2023-02-18T09:11:08.206Z,100847.47
2023-02-18T09:16:09.716Z,100852.13
2023-02-18T09:21:11.183Z,100838.50
2023-02-18T09:26:12.419Z,100841.66
2023-02-18T09:31:14.038Z,100840.91
2023-02-18T09:36:15.580Z,100837.97
2023-02-18T09:41:16.750Z,100835.84
2023-02-18T09:46:17.947Z,100829.03
2023-02-18T09:51:19.109Z,100812.75
2023-02-18T09:56:20.301Z,100805.38
2023-02-18T10:01:21.489Z,100807.50
2023-02-18T10:06:22.871Z,100806.19
2023-02-18T10:11:24.086Z,100808.25
2023-02-18T10:16:25.355Z,100796.69
2023-02-18T10:21:26.549Z,100790.38
2023-02-18T10:26:27.845Z,100788.06
2023-02-18T10:31:29.264Z,100787.56
2023-02-18T10:36:30.580Z,100787.31
2023-02-18T10:41:31.734Z,100784.41
2023-02-18T10:46:33.019Z,100789.09
2023-02-18T10:51:34.341Z,100798.25
2023-02-18T10:56:35.635Z,100805.06
2023-02-18T11:01:36.895Z,100798.94
2023-02-18T11:06:38.061Z,100828.66
2023-02-18T11:11:39.431Z,100821.34
2023-02-18T11:16:40.675Z,100818.97
2023-02-18T11:21:42.251Z,100827.38
2023-02-18T11:26:44.717Z,100818.44
2023-02-18T11:31:45.960Z,100822.34
2023-02-18T11:36:47.166Z,100810.84
2023-02-18T11:41:48.354Z,100817.97
2023-02-18T11:46:49.540Z,100821.38
2023-02-18T11:51:50.772Z,100813.25
2023-02-18T11:56:53.844Z,100816.16
2023-02-18T12:01:55.153Z,100822.16
2023-02-18T12:06:56.461Z,100794.63
2023-02-18T12:11:59.846Z,100809.84
2023-02-18T12:17:01.310Z,100809.84
2023-02-18T12:22:02.777Z,100815.63
2023-02-18T12:27:03.940Z,100812.44
2023-02-18T12:32:05.219Z,100805.13
2023-02-18T12:37:06.534Z,100793.03
2023-02-18T12:42:07.722Z,100797.75
2023-02-18T12:47:09.252Z,100797.53
2023-02-18T12:52:10.381Z,100800.13
2023-02-18T12:57:11.859Z,100791.97
2023-02-18T13:02:13.043Z,100796.19
2023-02-18T13:07:14.297Z,100798.81
2023-02-18T13:12:15.466Z,100797.50
2023-02-18T13:17:16.707Z,100806.13
2023-02-18T13:22:17.881Z,100798.78
2023-02-18T13:27:19.095Z,100796.69
2023-02-18T13:32:20.250Z,100807.69
2023-02-18T13:37:21.737Z,100789.34
2023-02-18T13:42:23.097Z,100791.69
2023-02-18T13:47:24.271Z,100793.25
2023-02-18T13:52:25.542Z,100789.56
2023-02-18T13:57:26.702Z,100788.00
2023-02-18T14:02:28.251Z,100780.63
2023-02-18T14:07:29.470Z,100784.06
2023-02-18T14:12:30.610Z,100789.03
2023-02-18T14:17:31.824Z,100793.47
2023-02-18T14:22:33.054Z,100801.91
2023-02-18T14:27:34.276Z,100792.19
2023-02-18T14:32:35.459Z,100783.25
2023-02-18T14:37:36.634Z,100792.41
2023-02-18T14:42:37.861Z,100785.31
2023-02-18T14:47:39.044Z,100786.63
2023-02-18T14:52:40.164Z,100778.75
2023-02-18T14:57:41.430Z,100780.63
2023-02-18T15:02:42.577Z,100779.81
2023-02-18T15:07:43.777Z,100788.19
2023-02-18T15:12:44.972Z,100776.13
2023-02-18T15:17:46.158Z,100769.56
2023-02-18T15:22:47.968Z,100767.47
2023-02-18T15:27:49.355Z,100775.59
2023-02-18T15:32:50.802Z,100766.16
2023-02-18T15:37:52.064Z,100759.06
2023-02-18T15:42:53.262Z,100767.72
2023-02-18T15:47:54.456Z,100764.03
2023-02-18T15:52:55.625Z,100776.88
2023-02-18T15:57:56.834Z,100775.56
2023-02-18T16:02:58.072Z,100770.31
2023-02-18T16:07:59.290Z,100776.06
2023-02-18T16:13:00.542Z,100768.19
2023-02-18T16:18:01.676Z,100779.72
2023-02-18T16:23:03.293Z,100789.66
2023-02-18T16:28:04.532Z,100787.84
2023-02-18T16:33:05.765Z,100792.78
2023-02-18T16:38:06.932Z,100786.50
2023-02-18T16:43:08.168Z,100783.09
2023-02-18T16:48:09.331Z,100781.25
2023-02-18T16:53:10.550Z,100777.31
2023-02-18T16:58:11.743Z,100780.72
2023-02-18T17:03:12.997Z,100786.19
2023-02-18T17:08:14.385Z,100782.22
2023-02-18T17:13:15.602Z,100786.44
2023-02-18T17:18:16.733Z,100777.53
2023-02-18T17:23:17.926Z,100785.91
2023-02-18T17:28:19.315Z,100784.84
2023-02-18T17:33:20.584Z,100789.34
2023-02-18T17:38:21.852Z,100804.84
2023-02-18T17:43:25.257Z,100797.00
2023-02-18T17:48:28.320Z,100799.13
2023-02-18T17:53:29.553Z,100793.09
2023-02-18T17:58:30.763Z,100792.28
2023-02-18T18:03:31.970Z,100785.50
2023-02-18T18:08:33.174Z,100790.75
2023-02-18T18:13:34.353Z,100788.16
2023-02-18T18:18:36.859Z,100785.53
2023-02-18T18:23:38.019Z,100793.94
2023-02-18T18:28:39.154Z,100794.97
2023-02-18T18:33:40.285Z,100789.22
2023-02-18T18:38:41.458Z,100790.81
2023-02-18T18:43:42.630Z,100782.13
2023-02-18T18:48:43.773Z,100788.44
2023-02-18T18:53:45.046Z,100783.19
2023-02-18T18:58:46.213Z,100790.25
2023-02-18T19:03:48.356Z,100791.34
2023-02-18T19:08:49.564Z,100782.94
2023-02-18T19:13:50.745Z,100781.88
2023-02-18T19:18:52.138Z,100782.94
2023-02-18T19:23:53.316Z,100789.75
2023-02-18T19:28:54.546Z,100783.47
2023-02-18T19:33:55.756Z,100775.34
2023-02-18T19:38:56.964Z,100781.09
2023-02-18T19:43:58.213Z,100778.19
2023-02-18T19:48:59.394Z,100776.06
2023-02-18T19:54:00.610Z,100781.81
2023-02-18T19:59:01.820Z,100771.84
2023-02-18T20:04:03.037Z,100761.34
2023-02-18T20:09:04.201Z,100761.34
2023-02-18T20:14:05.409Z,100769.97
2023-02-18T20:19:06.545Z,100764.97
2023-02-18T20:24:07.782Z,100756.03
2023-02-18T20:29:08.963Z,100747.09
2023-02-18T20:34:10.704Z,100740.28
2023-02-18T20:39:16.276Z,100732.94
2023-02-18T20:44:17.712Z,100731.88
2023-02-18T20:49:18.979Z,100724.00
2023-02-18T20:54:20.152Z,100724.50
2023-02-18T20:59:21.393Z,100724.50
2023-02-18T21:04:22.594Z,100712.94
2023-02-18T21:09:24.230Z,100718.19
2023-02-18T21:14:25.428Z,100706.44
2023-02-18T21:19:26.666Z,100709.81
2023-02-18T21:24:28.152Z,100695.34
2023-02-18T21:29:29.558Z,100704.25
2023-02-18T21:34:30.843Z,100686.94
2023-02-18T21:39:32.067Z,100681.69
2023-02-18T21:44:41.970Z,100695.06
2023-02-18T21:49:43.655Z,100703.16
2023-02-18T21:54:44.925Z,100707.09
2023-02-18T21:59:46.208Z,100709.22
2023-02-18T22:04:47.368Z,100713.97
2023-02-18T22:09:49.166Z,100696.97
2023-02-18T22:14:50.329Z,100690.72
2023-02-18T22:19:51.493Z,100697.28
2023-02-18T22:24:52.791Z,100689.69
2023-02-18T22:29:53.984Z,100693.38
2023-02-18T22:34:55.191Z,100682.09
2023-02-18T22:39:56.365Z,100687.34
2023-02-18T22:44:57.568Z,100666.88
2023-02-18T22:49:58.697Z,100655.88
2023-02-18T22:55:00.732Z,100655.88
2023-02-18T23:00:01.862Z,100642.00
2023-02-18T23:05:03.025Z,100616.53
2023-02-18T23:10:04.172Z,100634.41
2023-02-18T23:15:05.440Z,100638.06
2023-02-18T23:20:06.630Z,100628.91
2023-02-18T23:25:07.825Z,100658.81
2023-02-18T23:30:09.163Z,100661.44
2023-02-18T23:35:10.405Z,100667.19
2023-02-18T23:40:13.684Z,100665.34
2023-02-18T23:45:14.909Z,100656.38
2023-02-18T23:50:16.264Z,100663.22
2023-02-18T23:55:17.479Z,100644.06
